Time;durP1;ratioP1;P1;durP2;ratioP2;P2;SDS_P1;SDS_P2;PMS_P1;PMS_P2;Temp;Humidity;BMP_temperature;BMP_pressure;BME280_temperature;BME280_humidity;BME280_pressure;Samples;Min_cycle;Max_cycle;Signal;HPM_P1;HPM_P2
2023/07/22 00:00:49;;;;;;;3.22;2.67;;;16.20;99.90;;;;;;5088221;28;20035;-66
2023/07/22 00:03:15;;;;;;;2.60;2.40;;;16.20;99.90;;;;;;5094717;28;20051;-66
2023/07/22 00:05:41;;;;;;;2.22;1.85;;;16.20;99.90;;;;;;5074759;28;20051;-67
2023/07/22 00:08:08;;;;;;;3.25;2.65;;;16.20;99.90;;;;;;5094841;28;20776;-66
2023/07/22 00:10:34;;;;;;;3.03;2.72;;;16.30;99.90;;;;;;5092781;28;20488;-66
2023/07/22 00:13:00;;;;;;;3.38;2.90;;;16.30;99.90;;;;;;5091763;28;20080;-66
2023/07/22 00:15:25;;;;;;;2.40;2.20;;;16.30;99.90;;;;;;5095497;28;20032;-66
2023/07/22 00:17:51;;;;;;;2.72;2.45;;;16.30;99.90;;;;;;5092900;28;20403;-66
2023/07/22 00:20:19;;;;;;;3.75;2.60;;;16.30;99.90;;;;;;5095442;28;20038;-66
2023/07/22 00:22:45;;;;;;;4.90;2.42;;;16.30;99.90;;;;;;5092155;28;20040;-67
2023/07/22 00:25:11;;;;;;;3.35;2.40;;;16.40;99.90;;;;;;5090558;28;20471;-66
2023/07/22 00:27:38;;;;;;;3.17;2.88;;;16.40;99.90;;;;;;5094603;28;20036;-66
2023/07/22 00:30:08;;;;;;;5.10;2.75;;;16.50;99.90;;;;;;5095648;28;20541;-66
2023/07/22 00:32:36;;;;;;;2.67;2.47;;;16.50;99.90;;;;;;5069265;28;20043;-67
2023/07/22 00:35:06;;;;;;;3.08;2.78;;;16.50;99.90;;;;;;5070718;28;20028;-66
2023/07/22 00:37:32;;;;;;;6.65;3.25;;;16.60;99.90;;;;;;5077685;28;20073;-66
2023/07/22 00:39:58;;;;;;;5.10;3.03;;;16.60;99.90;;;;;;5072254;28;20036;-66
2023/07/22 00:42:25;;;;;;;3.75;2.92;;;16.60;99.90;;;;;;5067655;28;20031;-66
2023/07/22 00:44:50;;;;;;;3.25;2.95;;;16.60;99.90;;;;;;5092854;28;20024;-66
2023/07/22 00:47:17;;;;;;;3.42;3.13;;;16.70;99.90;;;;;;5095399;28;20571;-66
2023/07/22 00:49:47;;;;;;;4.38;2.72;;;16.70;99.90;;;;;;5090366;28;20454;-66
2023/07/22 00:52:13;;;;;;;4.32;3.30;;;16.70;99.90;;;;;;5093685;28;20059;-66
2023/07/22 00:54:39;;;;;;;3.67;3.13;;;16.70;99.90;;;;;;5094336;28;20062;-66
2023/07/22 00:57:06;;;;;;;3.67;3.00;;;16.70;99.90;;;;;;5075563;28;20020;-66
2023/07/22 00:59:32;;;;;;;4.80;3.58;;;16.80;99.90;;;;;;5074278;28;20024;-66
2023/07/22 01:01:58;;;;;;;4.90;3.78;;;16.80;99.90;;;;;;5094676;28;20381;-66
2023/07/22 01:04:25;;;;;;;3.35;3.05;;;16.80;99.90;;;;;;5094125;28;20028;-66
2023/07/22 01:06:54;;;;;;;4.85;3.88;;;16.80;99.90;;;;;;5073833;28;20031;-66
2023/07/22 01:09:20;;;;;;;3.40;3.10;;;16.80;99.90;;;;;;5076273;28;20123;-66
2023/07/22 01:11:46;;;;;;;4.60;3.60;;;16.80;99.90;;;;;;5093389;28;20157;-66
2023/07/22 01:14:11;;;;;;;3.67;2.78;;;16.90;99.90;;;;;;5076221;28;20488;-66
2023/07/22 01:16:37;;;;;;;3.47;2.90;;;16.80;99.90;;;;;;5077801;28;20159;-66
2023/07/22 01:19:04;;;;;;;5.55;3.30;;;16.80;99.90;;;;;;5098192;28;20878;-66
2023/07/22 01:21:32;;;;;;;3.40;3.08;;;16.80;99.90;;;;;;5096884;28;20039;-65
2023/07/22 01:23:58;;;;;;;3.88;3.22;;;16.80;99.90;;;;;;5095481;28;20800;-66
2023/07/22 01:26:24;;;;;;;5.65;3.35;;;16.90;99.90;;;;;;5098401;28;20039;-66
2023/07/22 01:28:50;;;;;;;3.55;3.10;;;16.90;99.90;;;;;;5078092;28;20061;-66
2023/07/22 01:31:16;;;;;;;4.82;3.58;;;16.90;99.90;;;;;;5079869;28;20116;-66
2023/07/22 01:33:41;;;;;;;3.85;2.58;;;16.80;99.90;;;;;;5093947;28;20048;-66
2023/07/22 01:36:07;;;;;;;4.13;2.95;;;16.80;99.90;;;;;;5079792;28;20020;-66
2023/07/22 01:38:34;;;;;;;3.40;3.10;;;16.80;99.90;;;;;;5077832;28;20035;-66
2023/07/22 01:41:00;;;;;;;3.63;2.60;;;16.70;99.90;;;;;;5091759;28;20492;-66
2023/07/22 01:43:26;;;;;;;4.47;3.03;;;16.70;99.90;;;;;;5079609;28;20047;-66
2023/07/22 01:45:53;;;;;;;3.97;2.97;;;16.70;99.90;;;;;;5077818;28;20040;-66
2023/07/22 01:48:18;;;;;;;3.88;2.50;;;16.80;99.90;;;;;;5098065;28;20153;-66
2023/07/22 01:50:44;;;;;;;5.22;3.20;;;16.70;99.90;;;;;;5095878;28;20539;-65
2023/07/22 01:53:10;;;;;;;4.97;2.70;;;16.70;99.90;;;;;;5079432;28;20020;-66
2023/07/22 01:55:36;;;;;;;2.72;2.53;;;16.70;99.90;;;;;;5095878;28;20034;-66
2023/07/22 01:58:02;;;;;;;3.15;2.45;;;16.70;99.90;;;;;;5098350;28;20077;-66
2023/07/22 02:00:28;;;;;;;3.42;2.42;;;16.70;99.90;;;;;;5076602;28;20036;-66
2023/07/22 02:02:54;;;;;;;3.38;2.38;;;16.60;99.90;;;;;;5077131;28;20087;-66
2023/07/22 02:05:20;;;;;;;2.92;2.42;;;16.60;99.90;;;;;;5093055;28;20051;-66
2023/07/22 02:07:46;;;;;;;7.28;2.45;;;16.60;99.90;;;;;;5076953;28;20036;-66
2023/07/22 02:10:13;;;;;;;3.70;2.28;;;16.60;99.90;;;;;;5097879;28;20028;-66
2023/07/22 02:12:39;;;;;;;3.08;2.60;;;16.50;99.90;;;;;;5076589;28;20050;-66
2023/07/22 02:15:05;;;;;;;2.67;2.17;;;16.50;99.90;;;;;;5097389;28;20027;-66
2023/07/22 02:17:31;;;;;;;4.20;2.20;;;16.40;99.90;;;;;;5094899;28;20591;-66
2023/07/22 02:19:57;;;;;;;2.65;2.20;;;16.40;99.90;;;;;;5094471;28;20119;-66
2023/07/22 02:22:22;;;;;;;2.65;1.98;;;16.40;99.90;;;;;;5062552;28;20536;-66
2023/07/22 02:24:48;;;;;;;4.05;2.20;;;16.30;99.90;;;;;;5076460;28;20136;-66
2023/07/22 02:27:14;;;;;;;3.92;1.95;;;16.30;99.90;;;;;;5079241;28;20110;-66
2023/07/22 02:29:40;;;;;;;2.40;2.17;;;16.20;99.90;;;;;;5088331;28;20036;-66
2023/07/22 02:32:06;;;;;;;2.85;1.90;;;16.20;99.90;;;;;;5078723;28;20085;-65
2023/07/22 02:34:32;;;;;;;4.10;2.15;;;16.20;99.90;;;;;;5076480;28;20028;-66
2023/07/22 02:36:58;;;;;;;2.10;1.88;;;16.20;99.90;;;;;;5094493;28;20024;-66
2023/07/22 02:39:23;;;;;;;4.22;1.90;;;16.20;99.90;;;;;;5079105;28;20035;-65
2023/07/22 02:41:49;;;;;;;2.15;1.98;;;16.20;99.90;;;;;;5076279;28;20035;-66
2023/07/22 02:44:15;;;;;;;1.90;1.67;;;16.20;99.90;;;;;;5078869;28;20040;-66
2023/07/22 02:46:41;;;;;;;2.30;1.73;;;16.20;99.90;;;;;;5072588;28;20068;-65
2023/07/22 02:49:07;;;;;;;2.83;1.85;;;16.10;99.90;;;;;;5097259;28;20081;-66
2023/07/22 02:51:33;;;;;;;2.35;1.83;;;16.10;99.90;;;;;;5094538;28;20039;-65
2023/07/22 02:53:59;;;;;;;2.08;1.70;;;16.10;99.90;;;;;;5071026;28;20031;-65
2023/07/22 02:56:25;;;;;;;2.28;1.83;;;16.00;99.90;;;;;;5078672;28;20411;-66
2023/07/22 02:58:50;;;;;;;1.85;1.60;;;16.00;99.90;;;;;;5094147;28;20028;-66
2023/07/22 03:01:16;;;;;;;2.38;1.50;;;16.00;99.90;;;;;;5096787;28;20411;-66
2023/07/22 03:03:42;;;;;;;2.30;1.73;;;16.00;99.90;;;;;;5093928;28;20127;-65
2023/07/22 03:06:09;;;;;;;2.67;2.00;;;16.00;99.90;;;;;;5078561;28;20039;-66
2023/07/22 03:08:36;;;;;;;1.88;1.70;;;15.90;99.90;;;;;;5093808;28;20058;-66
2023/07/22 03:11:03;;;;;;;2.33;2.10;;;15.90;99.90;;;;;;5093397;28;20452;-66
2023/07/22 03:13:29;;;;;;;2.30;1.50;;;15.80;99.90;;;;;;5096620;28;20164;-66
2023/07/22 03:15:56;;;;;;;2.40;1.75;;;15.80;99.90;;;;;;5074414;28;20123;-66
2023/07/22 03:18:22;;;;;;;1.73;1.63;;;15.70;99.90;;;;;;5077063;28;20042;-65
2023/07/22 03:20:48;;;;;;;3.53;1.80;;;15.70;99.90;;;;;;5091041;28;20756;-66
2023/07/22 03:23:14;;;;;;;2.33;1.75;;;15.70;99.90;;;;;;5073510;28;20040;-66
2023/07/22 03:25:41;;;;;;;2.42;2.00;;;15.60;99.90;;;;;;5089665;28;20036;-66
2023/07/22 03:28:07;;;;;;;2.30;1.80;;;15.60;99.90;;;;;;5092874;28;20399;-66
2023/07/22 03:30:34;;;;;;;2.78;1.70;;;15.60;99.90;;;;;;5093115;28;20407;-65
2023/07/22 03:33:00;;;;;;;2.22;2.03;;;15.60;99.90;;;;;;5092953;28;20051;-66
2023/07/22 03:35:27;;;;;;;1.77;1.67;;;15.50;99.90;;;;;;5093992;28;20131;-66
2023/07/22 03:37:53;;;;;;;1.80;1.67;;;15.50;99.90;;;;;;5092673;28;20491;-65
2023/07/22 03:40:26;;;;;;;2.80;1.90;;;15.40;99.90;;;;;;5096468;28;20063;-66
2023/07/22 03:42:54;;;;;;;2.20;2.00;;;15.40;99.90;;;;;;5075468;28;20495;-65
2023/07/22 03:45:21;;;;;;;2.13;1.92;;;15.40;99.90;;;;;;5093122;28;20024;-66
2023/07/22 03:47:52;;;;;;;3.92;2.08;;;15.40;99.90;;;;;;5074462;28;20092;-65
2023/07/22 03:50:18;;;;;;;3.50;2.10;;;15.30;99.90;;;;;;5096191;28;20035;-66
2023/07/22 03:52:44;;;;;;;3.22;2.25;;;15.30;99.90;;;;;;5093811;28;20045;-65
2023/07/22 03:55:10;;;;;;;9.02;2.53;;;15.30;99.90;;;;;;5076828;28;20016;-65
2023/07/22 03:57:36;;;;;;;4.70;2.58;;;15.30;99.90;;;;;;5075592;28;20498;-66
2023/07/22 04:00:09;;;;;;;2.47;2.28;;;15.30;99.90;;;;;;5076865;28;20028;-66
2023/07/22 04:02:43;;;;;;;3.75;2.03;;;15.30;99.90;;;;;;5090840;28;20113;-65
2023/07/22 04:05:10;;;;;;;3.88;2.50;;;15.30;99.90;;;;;;5093048;28;20097;-66
2023/07/22 04:07:35;;;;;;;2.55;2.35;;;15.30;99.90;;;;;;5095554;28;20566;-66
2023/07/22 04:10:02;;;;;;;3.90;2.40;;;15.30;99.90;;;;;;5074844;28;20020;-66
2023/07/22 04:12:28;;;;;;;4.22;3.08;;;15.30;99.90;;;;;;5076893;28;20033;-66
2023/07/22 04:14:54;;;;;;;4.88;3.10;;;15.30;99.90;;;;;;5093539;28;20032;-65
2023/07/22 04:17:20;;;;;;;4.40;3.00;;;15.40;99.90;;;;;;5077296;28;20053;-65
2023/07/22 04:19:46;;;;;;;3.90;3.10;;;15.40;99.90;;;;;;5093561;28;20039;-65
2023/07/22 04:22:13;;;;;;;6.30;3.70;;;15.40;99.90;;;;;;5092227;28;20092;-66
2023/07/22 04:24:39;;;;;;;4.88;4.03;;;15.40;99.90;;;;;;5060255;28;20820;-65
2023/07/22 04:27:05;;;;;;;6.97;3.67;;;15.50;99.90;;;;;;5075135;28;20039;-65
2023/07/22 04:29:31;;;;;;;6.63;3.30;;;15.50;99.90;;;;;;5095278;28;20122;-65
2023/07/22 04:31:58;;;;;;;4.85;3.50;;;15.50;99.90;;;;;;5093348;28;20115;-66
2023/07/22 04:34:25;;;;;;;4.22;3.28;;;15.60;99.90;;;;;;5094522;28;20546;-66
2023/07/22 04:36:51;;;;;;;4.53;3.40;;;15.60;99.90;;;;;;5075325;28;20742;-66
2023/07/22 04:39:17;;;;;;;8.55;4.45;;;15.70;99.90;;;;;;5092095;28;20065;-66
2023/07/22 04:41:43;;;;;;;5.50;3.95;;;15.70;99.90;;;;;;5094771;28;20105;-66
2023/07/22 04:44:09;;;;;;;5.13;4.15;;;15.80;99.90;;;;;;5093595;28;20028;-66
2023/07/22 04:46:35;;;;;;;4.40;3.58;;;15.80;99.90;;;;;;5095010;28;20043;-66
2023/07/22 04:49:01;;;;;;;6.43;4.25;;;15.80;99.90;;;;;;5093445;28;20672;-65
2023/07/22 04:51:27;;;;;;;7.97;4.95;;;15.80;99.90;;;;;;5097096;28;20035;-66
2023/07/22 04:53:53;;;;;;;7.45;4.72;;;15.80;99.90;;;;;;5097451;28;20032;-66
2023/07/22 04:56:18;;;;;;;8.05;4.38;;;15.90;99.90;;;;;;5097573;28;20490;-65
2023/07/22 04:58:44;;;;;;;6.40;4.70;;;16.00;99.90;;;;;;5096242;28;20028;-66
2023/07/22 05:01:10;;;;;;;7.53;4.95;;;15.90;99.90;;;;;;5097416;28;20043;-66
2023/07/22 05:03:36;;;;;;;6.97;4.80;;;16.00;99.90;;;;;;5098290;28;20131;-66
2023/07/22 05:06:02;;;;;;;8.43;5.30;;;16.10;99.90;;;;;;5097343;28;20073;-66
2023/07/22 05:08:27;;;;;;;6.38;4.55;;;16.10;99.90;;;;;;5098248;28;20507;-66
2023/07/22 05:10:53;;;;;;;7.72;4.22;;;16.10;99.90;;;;;;5097270;28;20078;-66
2023/07/22 05:13:19;;;;;;;6.60;4.97;;;16.20;99.90;;;;;;5098455;28;20028;-66
2023/07/22 05:15:45;;;;;;;7.38;4.88;;;16.20;99.90;;;;;;5096057;28;20036;-65
2023/07/22 05:18:11;;;;;;;6.25;4.13;;;16.30;99.90;;;;;;5097057;28;20032;-65
2023/07/22 05:20:39;;;;;;;6.93;4.53;;;16.30;99.90;;;;;;5098251;28;20046;-66
2023/07/22 05:23:04;;;;;;;8.20;4.88;;;16.30;99.90;;;;;;5094882;28;20086;-65
2023/07/22 05:25:30;;;;;;;7.43;5.30;;;16.40;99.90;;;;;;5098149;28;20027;-66
2023/07/22 05:27:56;;;;;;;7.63;4.93;;;16.40;99.90;;;;;;5078872;28;20122;-66
2023/07/22 05:30:21;;;;;;;6.53;5.05;;;16.40;99.90;;;;;;5098111;28;20470;-66
2023/07/22 05:32:47;;;;;;;8.68;5.25;;;16.50;99.90;;;;;;5094820;28;20556;-66
2023/07/22 05:35:13;;;;;;;8.98;5.32;;;16.60;99.90;;;;;;5096965;28;20869;-65
2023/07/22 05:37:39;;;;;;;8.48;4.13;;;16.60;99.90;;;;;;5097889;28;20031;-66
2023/07/22 05:40:07;;;;;;;8.52;4.72;;;16.60;99.90;;;;;;5097084;28;20169;-66
2023/07/22 05:42:32;;;;;;;8.73;4.03;;;16.60;99.90;;;;;;5097081;28;20483;-65
2023/07/22 05:45:00;;;;;;;7.53;4.65;;;16.70;99.90;;;;;;5097042;28;20031;-66
2023/07/22 05:47:25;;;;;;;7.80;5.15;;;16.70;99.90;;;;;;5097246;28;20027;-66
2023/07/22 05:49:51;;;;;;;7.07;4.20;;;16.80;99.90;;;;;;5094800;28;20043;-66
2023/07/22 05:52:17;;;;;;;6.30;4.68;;;16.80;99.90;;;;;;5096997;28;20063;-66
2023/07/22 05:54:43;;;;;;;5.57;4.15;;;16.90;99.90;;;;;;5094454;28;20125;-66
2023/07/22 05:57:08;;;;;;;6.07;3.92;;;16.90;99.90;;;;;;5097234;28;20025;-66
2023/07/22 05:59:36;;;;;;;5.53;4.10;;;16.90;99.90;;;;;;5096967;28;20039;-65
2023/07/22 06:02:03;;;;;;;8.20;4.70;;;17.00;99.90;;;;;;5096424;28;20074;-66
2023/07/22 06:04:29;;;;;;;7.20;4.45;;;17.20;99.90;;;;;;5096401;28;20027;-66
2023/07/22 06:06:54;;;;;;;7.72;4.22;;;17.30;99.90;;;;;;5097405;28;20659;-67
2023/07/22 06:09:21;;;;;;;7.22;4.30;;;17.40;99.90;;;;;;5094937;28;20032;-66
2023/07/22 06:11:46;;;;;;;6.25;4.15;;;17.40;99.90;;;;;;5096324;28;20035;-65
2023/07/22 06:14:12;;;;;;;9.18;4.57;;;17.50;99.90;;;;;;5097031;28;20122;-66
2023/07/22 06:16:38;;;;;;;8.00;4.20;;;17.60;99.90;;;;;;5096295;28;20028;-66
2023/07/22 06:19:04;;;;;;;10.55;4.47;;;17.70;99.90;;;;;;5096367;28;20066;-66
2023/07/22 06:21:30;;;;;;;5.43;4.22;;;17.70;99.90;;;;;;5095622;28;20028;-66
2023/07/22 06:23:56;;;;;;;9.25;4.50;;;17.70;99.90;;;;;;5096539;28;20038;-66
2023/07/22 06:26:22;;;;;;;8.25;4.07;;;17.70;99.90;;;;;;5094370;28;20036;-66
2023/07/22 06:28:47;;;;;;;6.93;4.10;;;17.70;99.90;;;;;;5096082;28;20065;-66
2023/07/22 06:31:13;;;;;;;11.43;4.50;;;17.80;99.90;;;;;;5096890;28;20486;-66
2023/07/22 06:33:39;;;;;;;6.30;3.90;;;17.80;99.90;;;;;;5095575;28;20030;-66
2023/07/22 06:36:05;;;;;;;8.02;3.97;;;17.90;99.90;;;;;;5096316;28;20032;-66
2023/07/22 06:38:30;;;;;;;11.27;4.70;;;17.80;99.90;;;;;;5095781;28;20035;-66
2023/07/22 06:40:57;;;;;;;8.80;3.67;;;17.90;99.90;;;;;;5096416;28;20074;-66
2023/07/22 06:43:23;;;;;;;9.40;4.15;;;17.90;99.90;;;;;;5095834;28;20032;-66
2023/07/22 06:45:49;;;;;;;6.93;4.05;;;18.00;99.90;;;;;;5094337;28;20027;-66
2023/07/22 06:48:14;;;;;;;9.18;4.10;;;18.00;99.90;;;;;;5092950;28;20101;-66
2023/07/22 06:50:46;;;;;;;6.95;3.42;;;18.10;99.90;;;;;;5095676;28;20024;-66
2023/07/22 06:53:14;;;;;;;6.22;4.13;;;18.20;99.90;;;;;;5096725;28;20088;-66
2023/07/22 06:55:47;;;;;;;8.98;4.00;;;18.30;99.90;;;;;;5094573;28;20032;-66
2023/07/22 06:58:13;;;;;;;7.28;4.03;;;18.40;99.90;;;;;;5093759;28;20051;-66
2023/07/22 07:00:39;;;;;;;9.50;4.10;;;18.40;99.90;;;;;;5094086;28;20761;-66
2023/07/22 07:03:05;;;;;;;8.82;4.05;;;18.50;99.90;;;;;;5093914;28;20408;-66
2023/07/22 07:05:30;;;;;;;6.72;3.53;;;18.50;99.90;;;;;;5097304;28;20031;-66
2023/07/22 07:07:56;;;;;;;10.48;4.13;;;18.60;99.10;;;;;;5093585;28;20110;-66
2023/07/22 07:10:22;;;;;;;8.52;4.10;;;18.50;99.60;;;;;;5096676;28;20049;-66
2023/07/22 07:12:47;;;;;;;6.65;3.60;;;18.60;99.40;;;;;;5092935;28;20759;-66
2023/07/22 07:15:13;;;;;;;5.47;3.85;;;18.60;98.90;;;;;;5097133;28;20096;-66
2023/07/22 07:17:39;;;;;;;9.57;3.80;;;18.70;98.90;;;;;;5092046;28;20545;-66
2023/07/22 07:20:05;;;;;;;6.30;3.75;;;18.70;97.60;;;;;;5093231;28;20060;-66
2023/07/22 07:22:31;;;;;;;4.57;3.28;;;18.80;97.80;;;;;;5097100;28;20039;-66
2023/07/22 07:24:57;;;;;;;6.35;3.65;;;18.90;97.60;;;;;;5072172;28;20039;-66
2023/07/22 07:27:22;;;;;;;7.40;4.10;;;19.00;97.60;;;;;;5096887;28;20023;-66
2023/07/22 07:29:48;;;;;;;7.00;3.65;;;19.10;97.00;;;;;;5093214;28;20071;-66
2023/07/22 07:32:15;;;;;;;5.82;3.25;;;19.20;96.70;;;;;;5096813;28;20337;-66
2023/07/22 07:34:40;;;;;;;7.75;3.72;;;19.30;96.40;;;;;;5092923;28;20107;-66
2023/07/22 07:37:06;;;;;;;6.95;3.80;;;19.30;95.80;;;;;;5093114;28;20028;-66
2023/07/22 07:39:32;;;;;;;6.88;3.78;;;19.30;96.00;;;;;;5092819;28;20937;-66
2023/07/22 07:41:57;;;;;;;6.93;3.85;;;19.30;95.90;;;;;;5074930;28;20821;-66
2023/07/22 07:44:23;;;;;;;6.60;4.10;;;19.30;95.90;;;;;;5096585;28;20054;-66
2023/07/22 07:46:49;;;;;;;11.18;4.50;;;19.40;95.90;;;;;;5092781;28;20036;-66
2023/07/22 07:49:15;;;;;;;7.03;3.10;;;19.60;96.30;;;;;;5096203;28;20446;-66
2023/07/22 07:51:42;;;;;;;5.25;3.78;;;19.60;94.80;;;;;;5092928;28;20028;-66
2023/07/22 07:54:08;;;;;;;8.65;4.40;;;19.70;95.20;;;;;;5092039;28;20773;-66
2023/07/22 07:56:34;;;;;;;6.80;3.75;;;19.70;94.80;;;;;;5096326;28;20066;-66
2023/07/22 07:59:00;;;;;;;4.70;3.30;;;19.80;93.70;;;;;;5092449;28;20020;-66
2023/07/22 08:01:26;;;;;;;5.53;3.70;;;19.80;94.30;;;;;;5096196;28;20035;-67
2023/07/22 08:03:52;;;;;;;6.32;3.58;;;19.90;94.30;;;;;;5092813;28;20086;-66
2023/07/22 08:06:18;;;;;;;6.53;3.65;;;20.00;93.70;;;;;;5096150;28;20065;-66
2023/07/22 08:08:43;;;;;;;4.70;3.00;;;20.10;94.00;;;;;;5092314;28;20067;-66
2023/07/22 08:11:13;;;;;;;6.07;3.55;;;20.20;93.50;;;;;;5096257;28;20052;-66
2023/07/22 08:13:39;;;;;;;6.60;3.63;;;20.30;93.10;;;;;;5073979;28;20446;-66
2023/07/22 08:16:08;;;;;;;3.97;3.08;;;20.20;91.70;;;;;;5093056;28;20024;-66
2023/07/22 08:18:35;;;;;;;7.85;3.50;;;20.20;92.80;;;;;;5067701;28;20027;-66
2023/07/22 08:21:06;;;;;;;6.93;3.58;;;20.20;93.20;;;;;;5058317;28;20130;-66
2023/07/22 08:23:32;;;;;;;5.60;3.38;;;20.40;92.90;;;;;;5093990;28;20134;-66
2023/07/22 08:25:58;;;;;;;6.65;3.53;;;20.50;92.80;;;;;;5097498;28;20123;-67
2023/07/22 08:28:24;;;;;;;5.05;3.20;;;20.40;91.90;;;;;;5097417;28;20070;-66
2023/07/22 08:30:55;;;;;;;5.03;3.40;;;20.50;91.60;;;;;;5095746;28;20612;-66
2023/07/22 08:33:22;;;;;;;4.32;3.08;;;20.50;92.10;;;;;;5098696;28;20038;-65
2023/07/22 08:35:48;;;;;;;7.30;3.65;;;20.60;91.50;;;;;;5097571;28;20081;-66
2023/07/22 08:38:14;;;;;;;6.80;3.42;;;20.70;91.10;;;;;;5095539;28;20032;-66
2023/07/22 08:40:40;;;;;;;6.15;3.10;;;20.70;90.90;;;;;;5096467;28;20059;-66
2023/07/22 08:43:10;;;;;;;8.35;3.28;;;20.70;91.20;;;;;;5099189;28;20027;-66
2023/07/22 08:45:38;;;;;;;5.55;3.45;;;20.70;91.20;;;;;;5078297;28;20101;-65
2023/07/22 08:48:09;;;;;;;4.72;3.47;;;20.60;90.90;;;;;;5095651;28;20071;-65
2023/07/22 08:50:58;;;;;;;4.65;2.92;;;20.60;91.60;;;;;;5092780;28;20039;-66
2023/07/22 08:53:25;;;;;;;5.28;3.20;;;20.70;90.50;;;;;;5099516;28;20046;-66
2023/07/22 08:55:51;;;;;;;3.58;2.63;;;20.70;90.30;;;;;;5095507;28;20024;-65
2023/07/22 08:58:17;;;;;;;5.93;3.15;;;20.70;90.10;;;;;;5099646;28;20746;-65
2023/07/22 09:00:43;;;;;;;5.22;3.03;;;20.70;90.40;;;;;;5092756;28;20213;-64
2023/07/22 09:03:11;;;;;;;3.92;2.90;;;20.70;91.70;;;;;;5093038;28;20219;-62
2023/07/22 09:05:38;;;;;;;7.35;3.67;;;20.90;90.90;;;;;;5062174;28;20047;-63
2023/07/22 09:08:07;;;;;;;9.55;3.53;;;21.00;90.50;;;;;;5094437;28;20032;-63
2023/07/22 09:10:33;;;;;;;5.90;3.00;;;21.20;91.10;;;;;;5083052;28;20048;-63
2023/07/22 09:13:00;;;;;;;4.93;3.30;;;21.30;90.10;;;;;;5092879;28;20032;-62
2023/07/22 09:15:26;;;;;;;4.55;3.25;;;21.30;88.40;;;;;;5095779;28;20028;-63
2023/07/22 09:17:52;;;;;;;5.00;3.40;;;21.40;88.40;;;;;;5097224;28;20028;-63
2023/07/22 09:20:20;;;;;;;4.38;3.30;;;21.50;89.00;;;;;;5097710;28;20697;-63
2023/07/22 09:22:50;;;;;;;5.80;3.78;;;21.60;89.00;;;;;;5094698;28;20028;-63
2023/07/22 09:25:20;;;;;;;7.57;3.92;;;21.70;87.10;;;;;;5096612;28;20491;-63
2023/07/22 09:27:47;;;;;;;6.30;3.25;;;21.70;86.30;;;;;;5096182;28;20109;-63
2023/07/22 09:30:21;;;;;;;4.95;3.25;;;21.60;84.00;;;;;;5094622;28;20028;-63
2023/07/22 09:32:47;;;;;;;4.30;3.08;;;21.60;84.50;;;;;;5094299;28;20039;-63
2023/07/22 09:35:13;;;;;;;5.30;3.63;;;21.60;84.30;;;;;;5098914;28;20027;-63
2023/07/22 09:37:39;;;;;;;7.22;3.30;;;21.60;83.30;;;;;;5094515;28;20028;-63
2023/07/22 09:40:18;;;;;;;4.75;3.25;;;21.50;83.50;;;;;;5098247;28;20028;-63
2023/07/22 09:42:50;;;;;;;4.97;3.45;;;21.50;84.10;;;;;;5092749;28;20036;-63
2023/07/22 09:45:18;;;;;;;6.00;3.42;;;21.60;82.90;;;;;;5097247;28;20044;-62
2023/07/22 09:47:46;;;;;;;6.75;3.75;;;21.60;81.80;;;;;;5095811;28;20835;-63
2023/07/22 09:50:21;;;;;;;5.60;3.65;;;21.60;84.30;;;;;;5097063;28;20139;-63
2023/07/22 09:52:52;;;;;;;5.03;3.38;;;21.80;81.30;;;;;;5092587;28;20493;-63
2023/07/22 09:55:28;;;;;;;5.85;3.20;;;21.80;81.20;;;;;;5097298;28;20027;-63
2023/07/22 09:57:54;;;;;;;6.00;3.67;;;21.80;81.60;;;;;;5096747;28;20032;-61
2023/07/22 10:00:21;;;;;;;6.63;3.83;;;21.90;80.90;;;;;;5094628;28;20036;-63
2023/07/22 10:02:49;;;;;;;5.75;3.35;;;22.00;81.40;;;;;;5095441;28;20043;-62
2023/07/22 10:05:26;;;;;;;4.10;3.38;;;22.10;81.70;;;;;;5097773;28;20035;-63
2023/07/22 10:07:54;;;;;;;5.05;3.08;;;22.10;80.90;;;;;;5092904;28;20530;-63
2023/07/22 10:10:34;;;;;;;6.13;3.13;;;22.10;80.30;;;;;;5061759;28;20118;-63
2023/07/22 10:13:00;;;;;;;5.78;3.67;;;22.20;80.90;;;;;;5096680;28;20020;-62
2023/07/22 10:15:29;;;;;;;4.32;3.47;;;22.20;79.60;;;;;;5094597;28;20446;-63
2023/07/22 10:17:56;;;;;;;5.35;3.45;;;22.20;78.10;;;;;;5093298;28;20032;-63
2023/07/22 10:20:23;;;;;;;8.25;3.80;;;22.10;80.30;;;;;;5097227;28;20114;-62
2023/07/22 10:22:50;;;;;;;4.47;3.00;;;22.20;76.90;;;;;;5090537;28;20024;-62
2023/07/22 10:25:17;;;;;;;4.88;3.03;;;22.10;76.80;;;;;;5097000;28;20035;-62
2023/07/22 10:27:43;;;;;;;5.90;3.08;;;22.00;77.40;;;;;;5094132;28;20032;-62
2023/07/22 10:30:11;;;;;;;4.53;3.22;;;22.00;77.40;;;;;;5094173;28;20032;-62
2023/07/22 10:32:42;;;;;;;6.18;3.80;;;22.10;78.60;;;;;;5097089;28;20024;-62
2023/07/22 10:35:12;;;;;;;4.95;3.55;;;22.20;77.30;;;;;;5094495;28;20032;-62
2023/07/22 10:37:45;;;;;;;6.63;3.35;;;22.20;79.70;;;;;;5097047;28;20036;-62
2023/07/22 10:40:18;;;;;;;4.82;3.28;;;22.30;77.00;;;;;;5095041;28;20053;-62
2023/07/22 10:42:56;;;;;;;6.75;3.85;;;22.20;76.10;;;;;;5094196;28;20042;-62
2023/07/22 10:45:30;;;;;;;4.28;3.40;;;22.30;77.40;;;;;;5093148;28;20822;-62
2023/07/22 10:48:11;;;;;;;6.03;3.67;;;22.30;78.80;;;;;;5093745;28;20540;-61
2023/07/22 10:50:51;;;;;;;5.85;3.65;;;22.50;75.10;;;;;;5089345;28;20036;-62
2023/07/22 10:53:20;;;;;;;5.15;3.22;;;22.60;76.60;;;;;;5095431;28;20173;-62
2023/07/22 10:56:04;;;;;;;4.38;3.33;;;22.60;76.70;;;;;;5094955;28;20057;-62
2023/07/22 10:58:32;;;;;;;6.07;3.65;;;22.70;76.20;;;;;;5091662;28;20608;-62
2023/07/22 11:01:29;;;;;;;5.00;3.00;;;22.70;76.00;;;;;;5094521;28;20047;-62
2023/07/22 11:04:17;;;;;;;3.55;3.05;;;22.70;73.00;;;;;;5093544;28;20040;-62
2023/07/22 11:06:48;;;;;;;4.80;2.80;;;22.70;72.50;;;;;;5091030;28;20098;-61
2023/07/22 11:09:35;;;;;;;7.38;3.25;;;22.80;75.00;;;;;;5097805;28;20035;-62
2023/07/22 11:12:08;;;;;;;4.97;3.33;;;22.90;74.20;;;;;;5090505;28;20024;-61
2023/07/22 11:14:38;;;;;;;4.72;3.28;;;23.00;71.70;;;;;;5091109;28;20034;-62
2023/07/22 11:17:05;;;;;;;4.78;3.13;;;23.10;71.70;;;;;;5091545;28;20028;-62
2023/07/22 11:19:35;;;;;;;3.88;2.92;;;23.10;69.20;;;;;;5095345;28;20035;-62
2023/07/22 11:22:01;;;;;;;3.97;3.20;;;23.10;69.50;;;;;;5094775;28;20032;-62
2023/07/22 11:24:27;;;;;;;5.65;2.95;;;23.10;69.70;;;;;;5094498;28;20107;-62
2023/07/22 11:26:54;;;;;;;8.98;3.30;;;23.00;71.10;;;;;;5092859;28;20763;-61
2023/07/22 11:29:20;;;;;;;6.95;3.83;;;23.00;69.50;;;;;;5094712;28;20038;-61
2023/07/22 11:31:48;;;;;;;4.60;3.40;;;23.00;69.80;;;;;;5090392;28;20480;-62
2023/07/22 11:34:15;;;;;;;7.10;3.67;;;23.10;71.80;;;;;;5095311;28;20035;-62
2023/07/22 11:36:41;;;;;;;4.57;3.35;;;23.20;70.40;;;;;;5075362;28;20032;-61
2023/07/22 11:39:12;;;;;;;5.88;3.50;;;23.30;68.40;;;;;;5095308;28;20035;-62
2023/07/22 11:41:41;;;;;;;6.85;3.55;;;23.40;70.60;;;;;;5092734;28;20028;-62
2023/07/22 11:44:12;;;;;;;4.03;3.38;;;23.40;68.40;;;;;;5091973;28;20030;-62
2023/07/22 11:46:57;;;;;;;4.45;3.17;;;23.20;67.50;;;;;;5089659;28;20063;-62
2023/07/22 11:49:28;;;;;;;4.07;3.20;;;22.90;68.10;;;;;;5095914;28;20042;-61
2023/07/22 11:51:55;;;;;;;7.28;3.60;;;22.80;70.20;;;;;;5090982;28;20115;-61
2023/07/22 11:54:22;;;;;;;4.28;2.78;;;22.90;70.70;;;;;;5090251;28;20038;-62
2023/07/22 11:56:48;;;;;;;4.18;3.15;;;23.00;71.50;;;;;;5092929;28;20486;-61
2023/07/22 11:59:13;;;;;;;4.10;3.15;;;23.20;70.40;;;;;;5095938;28;20035;-62
2023/07/22 12:01:42;;;;;;;4.32;3.50;;;23.30;71.00;;;;;;5090810;28;20062;-62
2023/07/22 12:04:13;;;;;;;4.45;3.25;;;23.40;69.50;;;;;;5092029;28;20016;-61
2023/07/22 12:06:39;;;;;;;5.47;3.50;;;23.50;69.60;;;;;;5095014;28;20110;-62
2023/07/22 12:09:07;;;;;;;4.05;3.13;;;23.40;68.60;;;;;;5089290;28;20031;-62
2023/07/22 12:11:34;;;;;;;4.47;3.45;;;23.30;67.40;;;;;;5093627;28;20047;-62
2023/07/22 12:14:10;;;;;;;5.57;4.00;;;23.20;69.40;;;;;;5092922;28;20463;-61
2023/07/22 12:16:37;;;;;;;6.78;3.30;;;23.20;68.50;;;;;;5091588;28;20446;-62
2023/07/22 12:19:04;;;;;;;4.78;3.63;;;23.20;69.60;;;;;;5093942;28;20023;-62
2023/07/22 12:21:30;;;;;;;5.03;3.42;;;23.30;69.70;;;;;;5090826;28;20119;-61
2023/07/22 12:23:55;;;;;;;4.60;3.13;;;23.40;68.70;;;;;;5072815;28;20116;-61
2023/07/22 12:26:21;;;;;;;4.75;3.30;;;23.50;68.70;;;;;;5095026;28;20092;-61
2023/07/22 12:28:47;;;;;;;7.30;3.15;;;23.60;68.00;;;;;;5091445;28;20039;-61
2023/07/22 12:31:13;;;;;;;4.90;3.35;;;23.70;65.80;;;;;;5094940;28;20485;-61
2023/07/22 12:33:39;;;;;;;7.47;3.33;;;23.60;67.70;;;;;;5091012;28;20028;-61
2023/07/22 12:36:05;;;;;;;5.10;3.20;;;23.50;67.00;;;;;;5093499;28;20070;-62
2023/07/22 12:38:31;;;;;;;5.03;3.75;;;23.40;68.20;;;;;;5090762;28;20516;-62
2023/07/22 12:40:57;;;;;;;4.00;3.35;;;23.40;67.60;;;;;;5091326;28;20138;-61
2023/07/22 12:43:23;;;;;;;4.82;3.22;;;23.40;68.90;;;;;;5094453;28;20146;-61
2023/07/22 12:45:49;;;;;;;4.47;3.45;;;23.30;68.70;;;;;;5091406;28;20036;-61